createdAt,value
2023-04-30T00:01:02.099Z,7.46
2023-04-30T00:03:28.693Z,7.55
2023-04-30T00:05:55.310Z,7.54
2023-04-30T00:08:21.938Z,7.63
2023-04-30T00:10:48.436Z,7.65
2023-04-30T00:13:14.947Z,7.57
2023-04-30T00:15:41.490Z,7.59
2023-04-30T00:18:07.960Z,7.60
2023-04-30T00:20:34.454Z,7.59
2023-04-30T00:23:01.204Z,7.63
2023-04-30T00:25:27.657Z,7.65
2023-04-30T00:27:54.128Z,7.71
2023-04-30T00:30:20.645Z,7.66
2023-04-30T00:32:47.136Z,7.68
2023-04-30T00:35:13.713Z,7.66
2023-04-30T00:37:40.258Z,7.69
2023-04-30T00:40:06.971Z,7.56
2023-04-30T00:42:33.429Z,7.66
2023-04-30T00:44:59.906Z,7.71
2023-04-30T00:47:26.380Z,7.64
2023-04-30T00:49:53.001Z,7.68
2023-04-30T00:52:19.584Z,7.67
2023-04-30T00:54:45.993Z,7.63
2023-04-30T00:57:12.508Z,7.61
2023-04-30T00:59:38.977Z,7.62
2023-04-30T01:02:05.400Z,7.64
2023-04-30T01:04:31.804Z,7.66
2023-04-30T01:06:58.227Z,7.63
2023-04-30T01:09:24.670Z,7.68
2023-04-30T01:12:03.758Z,7.70
2023-04-30T01:14:30.997Z,7.69
2023-04-30T01:17:00.469Z,7.60
2023-04-30T01:19:42.896Z,7.60
2023-04-30T01:22:10.230Z,7.59
2023-04-30T01:24:55.708Z,7.62
2023-04-30T01:27:32.593Z,7.67
2023-04-30T01:29:59.494Z,7.67
2023-04-30T01:32:26.252Z,7.62
2023-04-30T01:34:52.676Z,7.65
2023-04-30T01:37:37.536Z,7.63
2023-04-30T01:40:06.919Z,7.68
2023-04-30T01:43:02.659Z,7.68
2023-04-30T01:45:33.135Z,7.66
2023-04-30T01:48:11.899Z,7.59
2023-04-30T01:50:38.697Z,7.44
2023-04-30T01:53:06.902Z,7.46
2023-04-30T01:55:37.386Z,7.50
2023-04-30T01:58:05.433Z,7.50
2023-04-30T02:00:31.802Z,7.51
2023-04-30T02:02:58.633Z,7.52
2023-04-30T02:05:25.188Z,7.48
2023-04-30T02:07:51.987Z,7.52
2023-04-30T02:10:19.554Z,7.52
2023-04-30T02:12:45.943Z,7.54
2023-04-30T02:15:12.379Z,7.61
2023-04-30T02:17:38.899Z,7.53
2023-04-30T02:20:05.704Z,7.56
2023-04-30T02:22:32.197Z,7.63
2023-04-30T02:24:58.733Z,7.61
2023-04-30T02:27:25.436Z,7.59
2023-04-30T02:29:52.168Z,7.60
2023-04-30T02:32:18.941Z,7.56
2023-04-30T02:34:45.370Z,7.58
2023-04-30T02:37:11.864Z,7.56
2023-04-30T02:39:38.347Z,7.61
2023-04-30T02:42:04.879Z,7.50
2023-04-30T02:44:31.352Z,7.48
2023-04-30T02:46:57.869Z,7.50
2023-04-30T02:49:24.346Z,7.33
2023-04-30T02:51:50.846Z,7.06
2023-04-30T02:54:17.422Z,7.20
2023-04-30T02:56:43.960Z,7.33
2023-04-30T02:59:10.569Z,7.37
2023-04-30T03:01:37.005Z,7.29
2023-04-30T03:04:03.540Z,7.23
2023-04-30T03:06:30.205Z,7.23
2023-04-30T03:08:56.831Z,7.20
2023-04-30T03:11:23.225Z,7.06
2023-04-30T03:13:49.642Z,6.88
2023-04-30T03:16:16.084Z,7.03
2023-04-30T03:18:42.600Z,7.01
2023-04-30T03:21:09.073Z,7.13
2023-04-30T03:23:35.653Z,7.20
2023-04-30T03:26:02.121Z,7.15
2023-04-30T03:28:28.588Z,7.11
2023-04-30T03:30:55.109Z,7.08
2023-04-30T03:33:21.537Z,7.08
2023-04-30T03:35:48.020Z,7.15
2023-04-30T03:38:14.467Z,7.10
2023-04-30T03:40:40.979Z,7.15
2023-04-30T03:43:07.430Z,7.19
2023-04-30T03:45:33.820Z,7.15
2023-04-30T03:48:00.207Z,7.11
2023-04-30T03:50:26.974Z,7.01
2023-04-30T03:52:53.539Z,7.05
2023-04-30T03:55:20.054Z,7.01
2023-04-30T03:57:46.613Z,6.96
2023-04-30T04:00:13.272Z,6.98
2023-04-30T04:02:39.901Z,7.01
2023-04-30T04:05:06.610Z,6.98
2023-04-30T04:07:33.042Z,6.98
2023-04-30T04:09:59.454Z,6.94
2023-04-30T04:12:25.908Z,6.87
2023-04-30T04:14:52.320Z,6.88
2023-04-30T04:17:18.934Z,6.88
2023-04-30T04:19:45.327Z,6.85
2023-04-30T04:22:11.801Z,6.88
2023-04-30T04:24:38.336Z,6.92
2023-04-30T04:27:04.754Z,6.95
2023-04-30T04:29:31.219Z,6.95
2023-04-30T04:31:57.733Z,6.97
2023-04-30T04:34:24.229Z,7.01
2023-04-30T04:36:50.619Z,7.02
2023-04-30T04:39:17.028Z,7.08
2023-04-30T04:41:43.420Z,7.09
2023-04-30T04:44:09.848Z,7.01
2023-04-30T04:46:36.579Z,7.13
2023-04-30T04:49:03.047Z,7.23
2023-04-30T04:51:29.513Z,7.21
2023-04-30T04:53:55.936Z,7.28
2023-04-30T04:56:22.345Z,7.31
2023-04-30T04:58:48.775Z,7.36
2023-04-30T05:01:15.365Z,7.49
2023-04-30T05:03:41.960Z,7.29
2023-04-30T05:06:08.451Z,7.27
2023-04-30T05:08:34.939Z,7.38
2023-04-30T05:11:01.296Z,7.57
2023-04-30T05:13:27.709Z,7.59
2023-04-30T05:15:54.269Z,7.60
2023-04-30T05:18:20.697Z,7.72
2023-04-30T05:20:47.076Z,7.76
2023-04-30T05:23:13.463Z,7.89
2023-04-30T05:25:39.938Z,8.03
2023-04-30T05:28:06.359Z,8.12
2023-04-30T05:30:32.771Z,8.25
2023-04-30T05:32:59.300Z,8.33
2023-04-30T05:35:25.729Z,8.47
2023-04-30T05:37:52.229Z,8.59
2023-04-30T05:40:18.664Z,8.68
2023-04-30T05:42:45.130Z,8.69
2023-04-30T05:45:12.260Z,8.91
2023-04-30T05:47:38.812Z,8.98
2023-04-30T05:50:05.543Z,8.92
2023-04-30T05:52:31.946Z,9.08
2023-04-30T05:54:58.466Z,9.19
2023-04-30T05:57:25.007Z,9.26
2023-04-30T05:59:51.484Z,9.30
2023-04-30T06:02:17.916Z,9.40
2023-04-30T06:04:44.489Z,9.50
2023-04-30T06:07:11.258Z,9.61
2023-04-30T06:09:37.694Z,9.63
2023-04-30T06:12:04.248Z,9.53
2023-04-30T06:14:30.719Z,9.64
2023-04-30T06:16:57.497Z,9.92
2023-04-30T06:19:24.278Z,10.08
2023-04-30T06:21:50.695Z,10.16
2023-04-30T06:24:17.121Z,10.31
2023-04-30T06:26:44.025Z,10.59
2023-04-30T06:29:10.372Z,10.46
2023-04-30T06:31:37.075Z,10.72
2023-04-30T06:34:03.668Z,10.81
2023-04-30T06:36:30.176Z,10.77
2023-04-30T06:38:56.784Z,10.93
2023-04-30T06:41:23.256Z,11.25
2023-04-30T06:43:49.658Z,11.17
2023-04-30T06:46:16.139Z,11.30
2023-04-30T06:48:42.582Z,11.21
2023-04-30T06:51:10.563Z,11.35
2023-04-30T06:53:37.407Z,11.25
2023-04-30T06:56:03.850Z,11.45
2023-04-30T06:58:30.335Z,11.51
2023-04-30T07:00:56.702Z,11.65
2023-04-30T07:03:23.318Z,11.67
2023-04-30T07:05:49.891Z,12.13
2023-04-30T07:08:16.327Z,12.31
2023-04-30T07:10:42.765Z,12.23
2023-04-30T07:13:09.141Z,12.54
2023-04-30T07:15:35.616Z,13.16
2023-04-30T07:18:02.259Z,13.53
2023-04-30T07:20:28.626Z,14.03
2023-04-30T07:22:55.010Z,14.79
2023-04-30T07:25:21.665Z,14.94
2023-04-30T07:27:48.025Z,15.80
2023-04-30T07:30:14.390Z,15.85
2023-04-30T07:32:40.828Z,16.08
2023-04-30T07:35:07.385Z,16.72
2023-04-30T07:37:35.409Z,15.92
2023-04-30T07:40:02.733Z,15.62
2023-04-30T07:42:29.246Z,16.80
2023-04-30T07:44:55.623Z,17.40
2023-04-30T07:47:22.197Z,16.13
2023-04-30T07:49:49.105Z,16.13
2023-04-30T07:52:15.520Z,17.35
2023-04-30T07:54:42.095Z,17.16
2023-04-30T07:57:08.470Z,15.60
2023-04-30T07:59:34.901Z,14.84
2023-04-30T08:02:01.379Z,14.32
2023-04-30T08:04:27.873Z,13.81
2023-04-30T08:06:54.363Z,13.84
2023-04-30T08:09:20.929Z,13.76
2023-04-30T08:11:47.425Z,14.21
2023-04-30T08:14:13.820Z,14.83
2023-04-30T08:16:40.330Z,14.83
2023-04-30T08:19:06.756Z,14.70
2023-04-30T08:21:33.149Z,15.06
2023-04-30T08:23:59.567Z,14.89
2023-04-30T08:26:25.983Z,14.28
2023-04-30T08:28:52.488Z,14.30
2023-04-30T08:31:18.966Z,13.95
2023-04-30T08:33:45.409Z,14.02
2023-04-30T08:36:11.834Z,13.62
2023-04-30T08:38:38.299Z,14.03
2023-04-30T08:41:10.691Z,14.04
2023-04-30T08:43:37.166Z,14.19
2023-04-30T08:46:04.109Z,14.40
2023-04-30T08:48:30.556Z,13.93
2023-04-30T08:50:59.426Z,13.90
2023-04-30T08:53:25.897Z,13.43
2023-04-30T08:55:52.366Z,13.62
2023-04-30T08:58:18.834Z,13.89
2023-04-30T09:00:45.407Z,13.77
2023-04-30T09:03:11.938Z,13.42
2023-04-30T09:05:38.493Z,13.35
2023-04-30T09:08:05.145Z,13.26
2023-04-30T09:10:34.774Z,13.17
2023-04-30T09:13:01.717Z,13.29
2023-04-30T09:15:28.547Z,13.62
2023-04-30T09:18:13.502Z,13.71
2023-04-30T09:20:58.666Z,13.60
2023-04-30T09:23:25.336Z,13.89
2023-04-30T09:25:51.902Z,14.13
2023-04-30T09:28:18.515Z,14.17
2023-04-30T09:30:45.151Z,14.65
2023-04-30T09:33:12.171Z,14.89
2023-04-30T09:35:39.565Z,15.23
2023-04-30T09:38:05.955Z,15.42
2023-04-30T09:40:39.222Z,15.23
2023-04-30T09:43:05.892Z,15.12
2023-04-30T09:45:47.701Z,14.87
2023-04-30T09:48:23.571Z,15.37
2023-04-30T09:50:50.532Z,15.26
2023-04-30T09:53:16.956Z,14.63
2023-04-30T09:55:44.193Z,14.32
2023-04-30T09:58:10.834Z,14.16
2023-04-30T10:00:37.563Z,13.67
2023-04-30T10:03:05.827Z,13.65
2023-04-30T10:05:32.398Z,13.67
2023-04-30T10:07:58.858Z,13.59
2023-04-30T10:10:25.291Z,13.62
2023-04-30T10:12:51.894Z,13.43
2023-04-30T10:15:20.902Z,13.38
2023-04-30T10:17:47.828Z,13.60
2023-04-30T10:20:14.448Z,13.72
2023-04-30T10:22:40.884Z,13.95
2023-04-30T10:25:07.436Z,13.96
2023-04-30T10:27:34.367Z,13.92
2023-04-30T10:30:01.139Z,14.21
2023-04-30T10:32:29.743Z,14.20
2023-04-30T10:35:08.669Z,14.34
2023-04-30T10:37:36.644Z,14.56
2023-04-30T10:40:03.483Z,14.58
2023-04-30T10:42:29.975Z,14.17
2023-04-30T10:44:56.369Z,14.09
2023-04-30T10:47:27.863Z,13.90
2023-04-30T10:50:01.857Z,14.13
2023-04-30T10:52:28.689Z,13.97
2023-04-30T10:54:55.062Z,14.11
2023-04-30T10:57:21.531Z,14.42
2023-04-30T10:59:51.007Z,13.85
2023-04-30T11:02:17.501Z,13.89
2023-04-30T11:05:04.330Z,13.67
2023-04-30T11:07:31.002Z,13.79
2023-04-30T11:09:57.639Z,13.83
2023-04-30T11:12:25.860Z,14.01
2023-04-30T11:14:52.264Z,14.30
2023-04-30T11:17:22.363Z,14.16
2023-04-30T11:19:49.550Z,14.36
2023-04-30T11:22:16.214Z,14.53
2023-04-30T11:25:01.219Z,14.83
2023-04-30T11:27:28.163Z,14.94
2023-04-30T11:29:55.017Z,15.37
2023-04-30T11:32:22.169Z,15.40
2023-04-30T11:34:48.863Z,15.29
2023-04-30T11:37:31.888Z,15.19
2023-04-30T11:39:59.948Z,15.33
2023-04-30T11:42:26.383Z,14.92
2023-04-30T11:44:52.814Z,14.72
2023-04-30T11:47:19.268Z,14.83
2023-04-30T11:49:45.736Z,15.29
2023-04-30T11:52:15.236Z,15.40
2023-04-30T11:54:41.627Z,15.64
2023-04-30T11:57:08.008Z,15.34
2023-04-30T11:59:40.019Z,15.33
2023-04-30T12:02:06.706Z,14.56
2023-04-30T12:04:33.192Z,14.57
2023-04-30T12:07:00.264Z,14.36
2023-04-30T12:09:26.667Z,14.55
2023-04-30T12:11:53.155Z,14.68
2023-04-30T12:14:19.655Z,14.67
2023-04-30T12:16:47.455Z,14.82
2023-04-30T12:19:13.967Z,15.12
2023-04-30T12:21:41.315Z,15.36
2023-04-30T12:24:07.786Z,15.66
2023-04-30T12:26:35.163Z,15.72
2023-04-30T12:29:03.655Z,16.25
2023-04-30T12:31:31.651Z,16.31
2023-04-30T12:33:58.035Z,16.11
2023-04-30T12:36:31.211Z,15.82
2023-04-30T12:39:03.867Z,15.70
2023-04-30T12:41:30.369Z,15.39
2023-04-30T12:44:16.210Z,15.52
2023-04-30T12:46:42.778Z,15.47
2023-04-30T12:49:09.168Z,15.37
2023-04-30T12:51:35.625Z,15.41
2023-04-30T12:54:02.284Z,15.36
2023-04-30T12:56:28.849Z,15.61
2023-04-30T12:58:55.397Z,15.63
2023-04-30T13:01:22.029Z,15.57
2023-04-30T13:03:48.661Z,16.01
2023-04-30T13:06:15.295Z,16.37
2023-04-30T13:08:56.261Z,16.46
2023-04-30T13:11:24.647Z,16.57
2023-04-30T13:13:51.134Z,16.43
2023-04-30T13:16:17.620Z,16.50
2023-04-30T13:18:44.083Z,16.01
2023-04-30T13:21:10.651Z,15.97
2023-04-30T13:23:48.668Z,15.92
2023-04-30T13:26:18.235Z,15.92
2023-04-30T13:28:44.652Z,16.00
2023-04-30T13:31:11.183Z,15.64
2023-04-30T13:33:37.717Z,15.56
2023-04-30T13:36:04.204Z,15.20
2023-04-30T13:38:30.677Z,15.57
2023-04-30T13:40:57.101Z,15.73
2023-04-30T13:43:23.513Z,15.87
2023-04-30T13:45:50.341Z,15.84
2023-04-30T13:48:17.128Z,15.90
2023-04-30T13:50:43.482Z,15.43
2023-04-30T13:53:09.840Z,15.22
2023-04-30T13:55:36.298Z,15.59
2023-04-30T13:58:02.699Z,15.86
2023-04-30T14:00:29.182Z,15.61
2023-04-30T14:02:56.166Z,15.53
2023-04-30T14:05:22.713Z,15.84
2023-04-30T14:07:49.115Z,16.18
2023-04-30T14:10:15.618Z,15.91
2023-04-30T14:12:42.046Z,16.03
2023-04-30T14:15:08.621Z,15.89
2023-04-30T14:17:35.327Z,15.92
2023-04-30T14:20:01.764Z,15.55
2023-04-30T14:22:28.200Z,15.70
2023-04-30T14:24:54.687Z,15.62
2023-04-30T14:27:21.146Z,15.87
2023-04-30T14:29:47.772Z,16.25
2023-04-30T14:32:14.389Z,15.86
2023-04-30T14:34:40.816Z,15.77
2023-04-30T14:37:07.216Z,15.89
2023-04-30T14:39:33.817Z,15.94
2023-04-30T14:42:00.231Z,15.53
2023-04-30T14:44:26.901Z,15.23
2023-04-30T14:46:53.332Z,15.11
2023-04-30T14:49:19.806Z,15.12
2023-04-30T14:51:46.176Z,14.96
2023-04-30T14:54:12.647Z,14.76
2023-04-30T14:56:39.054Z,14.87
2023-04-30T14:59:05.464Z,14.81
2023-04-30T15:01:32.027Z,15.13
2023-04-30T15:03:58.757Z,15.49
2023-04-30T15:06:25.321Z,15.67
2023-04-30T15:08:51.713Z,15.82
2023-04-30T15:11:18.137Z,15.66
2023-04-30T15:13:44.593Z,15.52
2023-04-30T15:16:11.326Z,15.75
2023-04-30T15:18:38.112Z,15.66
2023-04-30T15:21:04.651Z,15.39
2023-04-30T15:23:31.089Z,14.78
2023-04-30T15:25:57.545Z,15.06
2023-04-30T15:28:23.957Z,15.16
2023-04-30T15:30:50.809Z,14.96
2023-04-30T15:33:17.683Z,14.81
2023-04-30T15:35:44.176Z,14.76
2023-04-30T15:38:10.547Z,15.02
2023-04-30T15:40:37.012Z,15.08
2023-04-30T15:43:04.147Z,15.19
2023-04-30T15:45:30.588Z,15.25
2023-04-30T15:47:57.025Z,15.17
2023-04-30T15:50:24.170Z,15.18
2023-04-30T15:52:50.549Z,15.07
2023-04-30T15:55:16.973Z,15.14
2023-04-30T15:57:43.556Z,15.11
2023-04-30T16:00:12.352Z,15.04
2023-04-30T16:02:38.869Z,15.16
2023-04-30T16:05:05.520Z,15.20
2023-04-30T16:07:31.972Z,15.09
2023-04-30T16:09:59.053Z,15.07
2023-04-30T16:12:25.553Z,15.02
2023-04-30T16:14:52.144Z,14.93
2023-04-30T16:17:18.756Z,15.03
2023-04-30T16:19:45.473Z,14.92
2023-04-30T16:22:11.886Z,14.80
2023-04-30T16:24:38.278Z,14.76
2023-04-30T16:27:04.657Z,14.75
2023-04-30T16:29:31.084Z,14.69
2023-04-30T16:31:57.575Z,14.78
2023-04-30T16:34:24.094Z,14.68
2023-04-30T16:36:50.541Z,14.40
2023-04-30T16:39:17.205Z,14.54
2023-04-30T16:41:43.724Z,14.63
2023-04-30T16:44:10.430Z,14.66
2023-04-30T16:46:36.951Z,14.50
2023-04-30T16:49:03.385Z,14.45
2023-04-30T16:51:29.835Z,14.30
2023-04-30T16:53:56.283Z,14.18
2023-04-30T16:56:22.666Z,14.17
2023-04-30T16:58:49.131Z,14.02
2023-04-30T17:01:15.852Z,13.92
2023-04-30T17:03:42.363Z,13.86
2023-04-30T17:06:09.232Z,13.88
2023-04-30T17:08:35.810Z,13.93
2023-04-30T17:11:02.287Z,13.88
2023-04-30T17:13:28.728Z,13.82
2023-04-30T17:15:55.167Z,13.70
2023-04-30T17:18:21.654Z,13.53
2023-04-30T17:20:48.116Z,13.59
2023-04-30T17:23:14.492Z,13.55
2023-04-30T17:25:40.994Z,13.44
2023-04-30T17:28:07.500Z,13.26
2023-04-30T17:30:33.905Z,13.06
2023-04-30T17:33:00.497Z,12.84
2023-04-30T17:35:27.055Z,12.72
2023-04-30T17:37:53.601Z,12.66
2023-04-30T17:40:20.063Z,12.67
2023-04-30T17:42:46.482Z,12.60
2023-04-30T17:45:13.004Z,12.52
2023-04-30T17:47:39.562Z,12.34
2023-04-30T17:50:06.516Z,12.33
2023-04-30T17:52:33.179Z,12.20
2023-04-30T17:54:59.656Z,12.07
2023-04-30T17:57:26.385Z,11.95
2023-04-30T17:59:52.923Z,11.94
2023-04-30T18:02:19.515Z,11.75
2023-04-30T18:04:45.943Z,11.64
2023-04-30T18:07:12.350Z,11.38
2023-04-30T18:09:38.781Z,11.06
2023-04-30T18:12:05.478Z,10.63
2023-04-30T18:14:31.949Z,10.53
2023-04-30T18:16:58.352Z,10.64
2023-04-30T18:19:24.809Z,10.58
2023-04-30T18:21:51.251Z,10.41
2023-04-30T18:24:17.672Z,10.21
2023-04-30T18:26:44.307Z,9.98
2023-04-30T18:29:10.699Z,9.80
2023-04-30T18:31:37.079Z,9.55
2023-04-30T18:34:03.516Z,9.47
2023-04-30T18:36:30.116Z,9.37
2023-04-30T18:38:56.479Z,9.11
2023-04-30T18:41:22.985Z,9.15
2023-04-30T18:43:49.412Z,9.11
2023-04-30T18:46:15.971Z,8.93
2023-04-30T18:48:42.588Z,8.84
2023-04-30T18:51:09.096Z,8.75
2023-04-30T18:53:35.643Z,8.67
2023-04-30T18:56:02.077Z,8.57
2023-04-30T18:58:28.405Z,8.54
2023-04-30T19:00:58.047Z,8.49
2023-04-30T19:03:24.889Z,8.42
2023-04-30T19:05:54.886Z,8.27
2023-04-30T19:08:21.242Z,8.22
2023-04-30T19:10:48.591Z,7.90
2023-04-30T19:13:15.011Z,7.95
2023-04-30T19:15:44.412Z,7.84
2023-04-30T19:18:10.933Z,7.78
2023-04-30T19:20:37.330Z,7.70
2023-04-30T19:23:03.733Z,7.51
2023-04-30T19:25:30.307Z,7.36
2023-04-30T19:27:56.771Z,7.43
2023-04-30T19:30:23.316Z,7.48
2023-04-30T19:32:49.854Z,7.42
2023-04-30T19:35:16.308Z,7.40
2023-04-30T19:37:42.678Z,7.26
2023-04-30T19:40:09.459Z,7.37
2023-04-30T19:42:35.954Z,7.29
2023-04-30T19:45:02.705Z,7.21
2023-04-30T19:47:29.264Z,7.20
2023-04-30T19:49:56.026Z,7.10
2023-04-30T19:52:22.648Z,7.02
2023-04-30T19:54:49.096Z,6.87
2023-04-30T19:57:16.471Z,6.76
2023-04-30T19:59:43.042Z,6.79
2023-04-30T20:02:09.640Z,6.79
2023-04-30T20:04:36.591Z,6.59
2023-04-30T20:07:03.089Z,6.64
2023-04-30T20:09:29.584Z,6.66
2023-04-30T20:11:56.109Z,6.56
2023-04-30T20:14:22.598Z,6.59
2023-04-30T20:16:49.040Z,6.47
2023-04-30T20:19:15.547Z,6.40
2023-04-30T20:21:41.953Z,6.39
2023-04-30T20:24:08.542Z,6.23
2023-04-30T20:26:34.970Z,6.24
2023-04-30T20:29:01.406Z,6.21
2023-04-30T20:31:27.889Z,6.19
2023-04-30T20:33:54.301Z,6.17
2023-04-30T20:36:20.659Z,6.12
2023-04-30T20:38:47.164Z,5.92
2023-04-30T20:41:13.587Z,6.04
2023-04-30T20:43:39.949Z,5.72
2023-04-30T20:46:06.463Z,5.83
2023-04-30T20:48:32.862Z,5.91
2023-04-30T20:50:59.539Z,5.95
2023-04-30T20:53:25.988Z,5.83
2023-04-30T20:55:52.398Z,5.72
2023-04-30T20:58:18.881Z,5.83
2023-04-30T21:00:45.422Z,5.63
2023-04-30T21:03:11.972Z,5.65
2023-04-30T21:05:38.621Z,5.74
2023-04-30T21:08:05.074Z,5.72
2023-04-30T21:10:31.513Z,5.72
2023-04-30T21:12:57.870Z,5.66
2023-04-30T21:15:24.416Z,5.66
2023-04-30T21:17:50.885Z,5.61
2023-04-30T21:20:17.328Z,5.49
2023-04-30T21:22:44.931Z,5.52
2023-04-30T21:25:11.482Z,5.43
2023-04-30T21:27:37.986Z,5.41
2023-04-30T21:30:04.631Z,5.39
2023-04-30T21:32:31.490Z,5.39
2023-04-30T21:34:57.919Z,5.42
2023-04-30T21:37:24.605Z,5.32
2023-04-30T21:39:51.063Z,5.23
2023-04-30T21:42:17.435Z,5.22
2023-04-30T21:44:43.993Z,5.12
2023-04-30T21:47:10.475Z,5.00
2023-04-30T21:49:37.009Z,5.11
2023-04-30T21:52:03.601Z,5.02
2023-04-30T21:54:29.971Z,5.02
2023-04-30T21:56:56.409Z,4.98
2023-04-30T21:59:22.880Z,4.86
2023-04-30T22:01:49.294Z,4.89
2023-04-30T22:04:15.894Z,4.84
2023-04-30T22:06:42.611Z,4.74
2023-04-30T22:09:09.296Z,4.70
2023-04-30T22:11:35.809Z,4.52
2023-04-30T22:14:02.301Z,4.61
2023-04-30T22:16:28.692Z,4.55
2023-04-30T22:18:57.331Z,4.63
2023-04-30T22:21:25.151Z,4.74
2023-04-30T22:23:51.570Z,4.67
2023-04-30T22:26:18.062Z,4.53
2023-04-30T22:28:44.621Z,4.49
2023-04-30T22:31:11.137Z,4.51
2023-04-30T22:33:37.556Z,4.33
2023-04-30T22:36:04.378Z,4.38
2023-04-30T22:38:31.243Z,4.37
2023-04-30T22:40:57.912Z,4.22
2023-04-30T22:43:24.408Z,4.26
2023-04-30T22:45:50.781Z,4.41
2023-04-30T22:48:17.330Z,4.45
2023-04-30T22:50:43.832Z,4.32
2023-04-30T22:53:10.275Z,4.22
2023-04-30T22:55:36.680Z,4.26
2023-04-30T22:58:03.287Z,4.31
2023-04-30T23:00:29.755Z,4.23
2023-04-30T23:02:56.269Z,4.24
2023-04-30T23:05:22.820Z,4.27
2023-04-30T23:07:49.200Z,4.23
2023-04-30T23:10:16.012Z,4.27
2023-04-30T23:12:42.635Z,4.36
2023-04-30T23:15:09.124Z,4.36
2023-04-30T23:17:35.653Z,4.26
2023-04-30T23:20:02.345Z,4.22
2023-04-30T23:22:28.822Z,4.26
2023-04-30T23:24:55.292Z,4.20
2023-04-30T23:27:21.752Z,4.10
2023-04-30T23:29:48.091Z,4.12
2023-04-30T23:32:14.500Z,4.11
2023-04-30T23:34:41.058Z,4.12
2023-04-30T23:37:07.889Z,4.02
2023-04-30T23:39:34.334Z,4.05
2023-04-30T23:42:00.928Z,4.12
2023-04-30T23:44:27.545Z,4.16
2023-04-30T23:46:54.752Z,4.15
2023-04-30T23:49:21.438Z,4.08
2023-04-30T23:51:47.894Z,3.98
2023-04-30T23:54:14.326Z,4.02
2023-04-30T23:56:40.806Z,4.03
2023-04-30T23:59:07.253Z,3.95
